createdAt,value
2022-12-06T00:02:25.805Z,29.25
2022-12-06T00:08:28.130Z,34.00
2022-12-06T00:14:31.511Z,36.25
2022-12-06T00:20:34.000Z,35.00
2022-12-06T00:26:39.600Z,26.25
2022-12-06T00:32:42.313Z,29.50
2022-12-06T00:38:44.568Z,31.00
2022-12-06T00:44:48.653Z,30.00
2022-12-06T00:50:52.099Z,30.75
2022-12-06T00:56:54.366Z,27.75
2022-12-06T01:02:58.278Z,29.75
2022-12-06T01:09:04.005Z,25.50
2022-12-06T01:15:06.336Z,29.50
2022-12-06T01:21:17.218Z,33.00
2022-12-06T01:27:19.795Z,29.00
2022-12-06T01:33:22.135Z,29.00
2022-12-06T01:39:24.077Z,23.00
2022-12-06T01:45:29.037Z,26.75
2022-12-06T01:51:32.228Z,20.00
2022-12-06T01:57:36.228Z,23.50
2022-12-06T02:03:40.201Z,23.00
2022-12-06T02:09:45.010Z,19.75
2022-12-06T02:16:13.955Z,20.50
2022-12-06T02:22:55.045Z,16.25
2022-12-06T02:29:01.325Z,11.25
2022-12-06T02:35:16.238Z,4.50
2022-12-06T02:41:38.320Z,9.00
2022-12-06T02:47:43.189Z,10.00
2022-12-06T02:53:49.698Z,10.75
2022-12-06T02:59:55.201Z,15.75
2022-12-06T03:06:04.039Z,12.50
2022-12-06T03:12:08.723Z,5.00
2022-12-06T03:18:20.381Z,11.50
2022-12-06T03:24:25.262Z,13.50
2022-12-06T03:30:30.849Z,10.00
2022-12-06T03:36:33.925Z,10.00
2022-12-06T03:42:36.982Z,6.00
2022-12-06T03:49:15.402Z,12.75
2022-12-06T03:55:18.012Z,12.00
2022-12-06T04:01:20.193Z,13.00
2022-12-06T04:07:23.212Z,18.50
2022-12-06T04:13:25.368Z,14.00
2022-12-06T04:19:27.695Z,24.50
2022-12-06T04:25:34.966Z,14.00
2022-12-06T04:31:59.193Z,19.00
2022-12-06T04:38:21.020Z,20.50
2022-12-06T04:44:24.320Z,23.50
2022-12-06T04:50:26.314Z,19.00
2022-12-06T04:56:29.092Z,17.50
2022-12-06T05:02:31.155Z,20.50
2022-12-06T05:08:34.503Z,16.25
2022-12-06T05:14:36.496Z,23.00
2022-12-06T05:20:38.474Z,24.00
2022-12-06T05:26:40.533Z,20.00
2022-12-06T05:32:42.714Z,17.00
2022-12-06T05:38:51.122Z,24.25
2022-12-06T05:44:53.676Z,27.25
2022-12-06T05:50:55.688Z,30.25
2022-12-06T05:56:57.631Z,28.50
2022-12-06T06:02:59.958Z,21.50
2022-12-06T06:09:03.000Z,23.50
2022-12-06T06:15:07.339Z,31.25
2022-12-06T06:21:10.716Z,31.00
2022-12-06T06:27:12.689Z,24.25
2022-12-06T06:33:15.310Z,28.00
2022-12-06T06:39:18.557Z,25.25
2022-12-06T06:45:25.201Z,30.00
2022-12-06T06:51:31.973Z,29.00
2022-12-06T06:57:36.288Z,25.67
2022-12-06T07:03:40.081Z,26.50
2022-12-06T07:09:42.352Z,22.25
2022-12-06T07:15:45.191Z,28.75
2022-12-06T07:21:47.404Z,27.50
2022-12-06T07:27:50.496Z,29.25
2022-12-06T07:33:56.092Z,28.00
2022-12-06T07:40:01.203Z,25.00
2022-12-06T07:46:03.506Z,29.00
2022-12-06T07:52:07.095Z,35.75
2022-12-06T07:58:11.162Z,44.50
2022-12-06T08:04:14.592Z,35.50
2022-12-06T08:10:16.814Z,40.75
2022-12-06T08:16:20.145Z,33.25
2022-12-06T08:22:22.241Z,41.25
2022-12-06T08:28:24.221Z,39.75
2022-12-06T08:34:26.747Z,40.50
2022-12-06T08:40:28.785Z,41.75
2022-12-06T08:46:32.198Z,42.00
2022-12-06T08:52:34.272Z,38.25
2022-12-06T08:58:39.273Z,52.75
2022-12-06T09:04:41.509Z,60.00
2022-12-06T09:10:44.665Z,56.25
2022-12-06T09:16:46.721Z,54.00
